Terminal Aerodrome Forecast
Issued by NWS

Home | Current Version | Previous Version | Text Only | Print | Product List | Glossary On
Versions: 1 2 3 4 5 6 7 8 9 10 11 12 13 14 15 16 17 18 19 20 21 22 23 24 25 26 27 28 29 30 31
000
FTAK31 PAFA 020159 AAA
TAFAOT
TAF AMD
PAOT 020159Z 0202/0224 28012KT P6SM OVC004
     FM020800 30007KT 5SM BR BKN007 OVC015
     FM021800 30007KT P6SM OVC015=

USA.gov is the U.S. government's official web portal to all federal, state and local government web resources and services.